sensor_id;sensor_type;location;lat;lon;timestamp;temperature;humidity
27741;DHT22;15134;48.768;9.184;2022-10-16T00:01:10;16.40;99.90
27741;DHT22;15134;48.768;9.184;2022-10-16T00:03:38;16.40;99.90
27741;DHT22;15134;48.768;9.184;2022-10-16T00:06:04;16.40;99.90
27741;DHT22;15134;48.768;9.184;2022-10-16T00:08:30;16.40;99.90
27741;DHT22;15134;48.768;9.184;2022-10-16T00:11:02;16.40;99.90
27741;DHT22;15134;48.768;9.184;2022-10-16T00:13:28;16.40;99.90
27741;DHT22;15134;48.768;9.184;2022-10-16T00:15:58;16.40;99.90
27741;DHT22;15134;48.768;9.184;2022-10-16T00:18:25;16.40;99.90
27741;DHT22;15134;48.768;9.184;2022-10-16T00:20:51;16.30;99.90
27741;DHT22;15134;48.768;9.184;2022-10-16T00:23:17;16.30;99.90
27741;DHT22;15134;48.768;9.184;2022-10-16T00:25:43;16.30;99.90
27741;DHT22;15134;48.768;9.184;2022-10-16T00:28:09;16.30;99.90
27741;DHT22;15134;48.768;9.184;2022-10-16T00:30:37;16.20;99.90
27741;DHT22;15134;48.768;9.184;2022-10-16T00:33:03;16.20;99.90
27741;DHT22;15134;48.768;9.184;2022-10-16T00:35:30;16.10;99.90
27741;DHT22;15134;48.768;9.184;2022-10-16T00:37:55;16.10;99.90
27741;DHT22;15134;48.768;9.184;2022-10-16T00:40:21;16.00;99.90
27741;DHT22;15134;48.768;9.184;2022-10-16T00:42:47;16.00;99.90
27741;DHT22;15134;48.768;9.184;2022-10-16T00:45:12;16.00;99.90
27741;DHT22;15134;48.768;9.184;2022-10-16T00:47:43;15.90;99.90
27741;DHT22;15134;48.768;9.184;2022-10-16T00:50:32;15.90;99.90
27741;DHT22;15134;48.768;9.184;2022-10-16T00:52:59;15.90;99.90
27741;DHT22;15134;48.768;9.184;2022-10-16T00:55:26;15.90;99.90
27741;DHT22;15134;48.768;9.184;2022-10-16T00:57:54;15.90;99.90
27741;DHT22;15134;48.768;9.184;2022-10-16T01:00:21;15.90;99.90
27741;DHT22;15134;48.768;9.184;2022-10-16T01:02:59;15.90;99.90
27741;DHT22;15134;48.768;9.184;2022-10-16T01:05:41;15.90;99.90
27741;DHT22;15134;48.768;9.184;2022-10-16T01:08:17;15.90;99.90
27741;DHT22;15134;48.768;9.184;2022-10-16T01:10:57;16.00;99.90
27741;DHT22;15134;48.768;9.184;2022-10-16T01:13:33;16.00;99.90
27741;DHT22;15134;48.768;9.184;2022-10-16T01:16:28;16.00;99.90
27741;DHT22;15134;48.768;9.184;2022-10-16T01:21:41;16.00;99.90
27741;DHT22;15134;48.768;9.184;2022-10-16T01:24:36;16.00;99.90
27741;DHT22;15134;48.768;9.184;2022-10-16T01:35:01;15.90;99.90
27741;DHT22;15134;48.768;9.184;2022-10-16T01:37:43;16.00;99.90
27741;DHT22;15134;48.768;9.184;2022-10-16T01:40:13;16.00;99.90
27741;DHT22;15134;48.768;9.184;2022-10-16T01:42:46;16.00;99.90
27741;DHT22;15134;48.768;9.184;2022-10-16T01:45:15;15.90;99.90
27741;DHT22;15134;48.768;9.184;2022-10-16T01:47:44;15.90;99.90
27741;DHT22;15134;48.768;9.184;2022-10-16T01:50:12;15.90;99.90
27741;DHT22;15134;48.768;9.184;2022-10-16T01:52:42;15.90;99.90
27741;DHT22;15134;48.768;9.184;2022-10-16T01:55:12;15.90;99.90
27741;DHT22;15134;48.768;9.184;2022-10-16T01:57:42;15.90;99.90
27741;DHT22;15134;48.768;9.184;2022-10-16T02:00:12;15.90;99.90
27741;DHT22;15134;48.768;9.184;2022-10-16T02:02:42;15.90;99.90
27741;DHT22;15134;48.768;9.184;2022-10-16T02:05:34;15.90;99.90
27741;DHT22;15134;48.768;9.184;2022-10-16T02:08:03;15.90;99.90
27741;DHT22;15134;48.768;9.184;2022-10-16T02:10:28;16.00;99.90
27741;DHT22;15134;48.768;9.184;2022-10-16T02:13:06;16.00;99.90
27741;DHT22;15134;48.768;9.184;2022-10-16T02:15:32;15.90;99.90
27741;DHT22;15134;48.768;9.184;2022-10-16T02:17:57;16.00;99.90
27741;DHT22;15134;48.768;9.184;2022-10-16T02:20:28;16.00;99.90
27741;DHT22;15134;48.768;9.184;2022-10-16T02:22:56;16.00;99.90
27741;DHT22;15134;48.768;9.184;2022-10-16T02:25:44;16.00;99.90
27741;DHT22;15134;48.768;9.184;2022-10-16T02:28:17;16.00;99.90
27741;DHT22;15134;48.768;9.184;2022-10-16T02:30:50;16.10;99.90
27741;DHT22;15134;48.768;9.184;2022-10-16T02:33:19;16.10;99.90
27741;DHT22;15134;48.768;9.184;2022-10-16T02:35:46;16.10;99.90
27741;DHT22;15134;48.768;9.184;2022-10-16T02:38:14;16.10;99.90
27741;DHT22;15134;48.768;9.184;2022-10-16T02:40:40;16.00;99.90
27741;DHT22;15134;48.768;9.184;2022-10-16T02:43:06;16.00;99.90
27741;DHT22;15134;48.768;9.184;2022-10-16T02:45:32;16.00;99.90
27741;DHT22;15134;48.768;9.184;2022-10-16T02:47:58;16.00;99.90
27741;DHT22;15134;48.768;9.184;2022-10-16T02:50:24;16.00;99.90
27741;DHT22;15134;48.768;9.184;2022-10-16T02:52:51;16.10;99.90
27741;DHT22;15134;48.768;9.184;2022-10-16T02:55:16;16.10;99.90
27741;DHT22;15134;48.768;9.184;2022-10-16T02:57:42;16.10;99.90
27741;DHT22;15134;48.768;9.184;2022-10-16T03:00:14;16.10;99.90
27741;DHT22;15134;48.768;9.184;2022-10-16T03:02:40;16.10;99.90
27741;DHT22;15134;48.768;9.184;2022-10-16T03:05:07;16.10;99.90
27741;DHT22;15134;48.768;9.184;2022-10-16T03:07:33;16.10;99.90
27741;DHT22;15134;48.768;9.184;2022-10-16T03:09:58;16.00;99.90
27741;DHT22;15134;48.768;9.184;2022-10-16T03:12:28;16.00;99.90
27741;DHT22;15134;48.768;9.184;2022-10-16T03:14:55;16.00;99.90
27741;DHT22;15134;48.768;9.184;2022-10-16T03:17:22;16.00;99.90
27741;DHT22;15134;48.768;9.184;2022-10-16T03:19:48;16.00;99.90
27741;DHT22;15134;48.768;9.184;2022-10-16T03:22:14;16.00;99.90
27741;DHT22;15134;48.768;9.184;2022-10-16T03:24:39;16.00;99.90
27741;DHT22;15134;48.768;9.184;2022-10-16T03:27:05;16.00;99.90
27741;DHT22;15134;48.768;9.184;2022-10-16T03:29:31;15.90;99.90
27741;DHT22;15134;48.768;9.184;2022-10-16T03:31:58;15.90;99.90
27741;DHT22;15134;48.768;9.184;2022-10-16T03:34:24;15.90;99.90
27741;DHT22;15134;48.768;9.184;2022-10-16T03:36:51;15.90;99.90
27741;DHT22;15134;48.768;9.184;2022-10-16T03:39:17;15.90;99.90
27741;DHT22;15134;48.768;9.184;2022-10-16T03:41:43;15.90;99.90
27741;DHT22;15134;48.768;9.184;2022-10-16T03:44:08;15.90;99.90
27741;DHT22;15134;48.768;9.184;2022-10-16T03:46:34;15.90;99.90
27741;DHT22;15134;48.768;9.184;2022-10-16T03:49:00;15.90;99.90
27741;DHT22;15134;48.768;9.184;2022-10-16T03:51:25;15.80;99.90
27741;DHT22;15134;48.768;9.184;2022-10-16T03:53:51;15.80;99.90
27741;DHT22;15134;48.768;9.184;2022-10-16T03:56:17;15.80;99.90
27741;DHT22;15134;48.768;9.184;2022-10-16T03:58:42;15.70;99.90
27741;DHT22;15134;48.768;9.184;2022-10-16T04:01:08;15.70;99.90
27741;DHT22;15134;48.768;9.184;2022-10-16T04:03:34;15.70;99.90
27741;DHT22;15134;48.768;9.184;2022-10-16T04:05:59;15.70;99.90
27741;DHT22;15134;48.768;9.184;2022-10-16T04:08:25;15.70;99.90
27741;DHT22;15134;48.768;9.184;2022-10-16T04:10:51;15.70;99.90
27741;DHT22;15134;48.768;9.184;2022-10-16T04:13:17;15.80;99.90
27741;DHT22;15134;48.768;9.184;2022-10-16T04:15:44;15.80;99.90
27741;DHT22;15134;48.768;9.184;2022-10-16T04:18:10;15.80;99.90
27741;DHT22;15134;48.768;9.184;2022-10-16T04:20:36;15.80;99.90
27741;DHT22;15134;48.768;9.184;2022-10-16T04:23:01;15.70;99.90
27741;DHT22;15134;48.768;9.184;2022-10-16T04:25:27;15.70;99.90
27741;DHT22;15134;48.768;9.184;2022-10-16T04:27:53;15.60;99.90
27741;DHT22;15134;48.768;9.184;2022-10-16T04:30:20;15.60;99.90
27741;DHT22;15134;48.768;9.184;2022-10-16T04:32:50;15.50;99.90
27741;DHT22;15134;48.768;9.184;2022-10-16T04:35:20;15.50;99.90
27741;DHT22;15134;48.768;9.184;2022-10-16T04:37:46;15.50;99.90
27741;DHT22;15134;48.768;9.184;2022-10-16T04:40:12;15.50;99.90
27741;DHT22;15134;48.768;9.184;2022-10-16T04:42:38;15.50;99.90
27741;DHT22;15134;48.768;9.184;2022-10-16T04:45:05;15.50;99.90
27741;DHT22;15134;48.768;9.184;2022-10-16T04:47:31;15.50;99.90
27741;DHT22;15134;48.768;9.184;2022-10-16T04:49:57;15.60;99.90
27741;DHT22;15134;48.768;9.184;2022-10-16T04:52:23;15.60;99.90
27741;DHT22;15134;48.768;9.184;2022-10-16T04:54:50;15.60;99.90
27741;DHT22;15134;48.768;9.184;2022-10-16T04:57:16;15.50;99.90
27741;DHT22;15134;48.768;9.184;2022-10-16T04:59:42;15.60;99.90
27741;DHT22;15134;48.768;9.184;2022-10-16T05:02:08;15.60;99.90
27741;DHT22;15134;48.768;9.184;2022-10-16T05:04:34;15.50;99.90
27741;DHT22;15134;48.768;9.184;2022-10-16T05:07:00;15.60;99.90
27741;DHT22;15134;48.768;9.184;2022-10-16T05:09:25;15.60;99.90
27741;DHT22;15134;48.768;9.184;2022-10-16T05:11:51;15.50;99.90
27741;DHT22;15134;48.768;9.184;2022-10-16T05:14:17;15.50;99.90
27741;DHT22;15134;48.768;9.184;2022-10-16T05:16:42;15.50;99.90
27741;DHT22;15134;48.768;9.184;2022-10-16T05:19:08;15.60;99.90
27741;DHT22;15134;48.768;9.184;2022-10-16T05:21:34;15.60;99.90
27741;DHT22;15134;48.768;9.184;2022-10-16T05:23:59;15.60;99.90
27741;DHT22;15134;48.768;9.184;2022-10-16T05:26:25;15.60;99.90
27741;DHT22;15134;48.768;9.184;2022-10-16T05:28:51;15.60;99.90
27741;DHT22;15134;48.768;9.184;2022-10-16T05:31:16;15.60;99.90
27741;DHT22;15134;48.768;9.184;2022-10-16T05:33:42;15.60;99.90
27741;DHT22;15134;48.768;9.184;2022-10-16T05:36:10;15.60;99.90
27741;DHT22;15134;48.768;9.184;2022-10-16T05:38:36;15.60;99.90
27741;DHT22;15134;48.768;9.184;2022-10-16T05:41:03;15.50;99.90
27741;DHT22;15134;48.768;9.184;2022-10-16T05:43:30;15.50;99.90
27741;DHT22;15134;48.768;9.184;2022-10-16T05:46:01;15.50;99.90
27741;DHT22;15134;48.768;9.184;2022-10-16T05:48:27;15.50;99.90
27741;DHT22;15134;48.768;9.184;2022-10-16T05:51:00;15.50;99.90
27741;DHT22;15134;48.768;9.184;2022-10-16T05:53:27;15.40;99.90
27741;DHT22;15134;48.768;9.184;2022-10-16T05:55:54;15.40;99.90
27741;DHT22;15134;48.768;9.184;2022-10-16T05:58:21;15.40;99.90
27741;DHT22;15134;48.768;9.184;2022-10-16T06:01:04;15.50;99.90
27741;DHT22;15134;48.768;9.184;2022-10-16T06:03:30;15.60;99.90
27741;DHT22;15134;48.768;9.184;2022-10-16T06:05:56;15.60;99.90
27741;DHT22;15134;48.768;9.184;2022-10-16T06:08:22;15.60;99.90
27741;DHT22;15134;48.768;9.184;2022-10-16T06:10:49;15.70;99.90
27741;DHT22;15134;48.768;9.184;2022-10-16T06:13:25;15.70;99.90
27741;DHT22;15134;48.768;9.184;2022-10-16T06:15:51;15.70;99.90
27741;DHT22;15134;48.768;9.184;2022-10-16T06:18:16;15.70;99.90
27741;DHT22;15134;48.768;9.184;2022-10-16T06:20:42;15.70;99.90
27741;DHT22;15134;48.768;9.184;2022-10-16T06:23:08;15.80;99.90
27741;DHT22;15134;48.768;9.184;2022-10-16T06:25:33;15.80;99.90
27741;DHT22;15134;48.768;9.184;2022-10-16T06:27:59;15.80;99.90
27741;DHT22;15134;48.768;9.184;2022-10-16T06:30:25;15.90;99.90
27741;DHT22;15134;48.768;9.184;2022-10-16T06:32:50;15.90;99.90
27741;DHT22;15134;48.768;9.184;2022-10-16T06:35:16;15.90;99.90
27741;DHT22;15134;48.768;9.184;2022-10-16T06:37:42;16.00;99.90
27741;DHT22;15134;48.768;9.184;2022-10-16T06:40:08;16.00;99.90
27741;DHT22;15134;48.768;9.184;2022-10-16T06:42:33;16.00;99.90
27741;DHT22;15134;48.768;9.184;2022-10-16T06:44:59;16.10;99.90
27741;DHT22;15134;48.768;9.184;2022-10-16T06:47:25;16.10;99.90
27741;DHT22;15134;48.768;9.184;2022-10-16T06:49:50;16.10;99.90
27741;DHT22;15134;48.768;9.184;2022-10-16T06:52:16;16.20;99.90
27741;DHT22;15134;48.768;9.184;2022-10-16T06:54:42;16.20;99.90
27741;DHT22;15134;48.768;9.184;2022-10-16T06:57:07;16.20;99.90
27741;DHT22;15134;48.768;9.184;2022-10-16T06:59:33;16.30;99.90
27741;DHT22;15134;48.768;9.184;2022-10-16T07:01:59;16.30;99.90
27741;DHT22;15134;48.768;9.184;2022-10-16T07:04:24;16.30;99.90
27741;DHT22;15134;48.768;9.184;2022-10-16T07:06:50;16.30;99.90
27741;DHT22;15134;48.768;9.184;2022-10-16T07:09:17;16.30;99.90
27741;DHT22;15134;48.768;9.184;2022-10-16T07:11:43;16.30;99.90
27741;DHT22;15134;48.768;9.184;2022-10-16T07:14:19;16.30;99.90
27741;DHT22;15134;48.768;9.184;2022-10-16T07:16:46;16.40;99.90
27741;DHT22;15134;48.768;9.184;2022-10-16T07:19:12;16.50;99.90
27741;DHT22;15134;48.768;9.184;2022-10-16T07:21:40;16.70;99.90
27741;DHT22;15134;48.768;9.184;2022-10-16T07:24:11;16.70;99.90
27741;DHT22;15134;48.768;9.184;2022-10-16T07:26:38;16.70;99.90
27741;DHT22;15134;48.768;9.184;2022-10-16T07:29:26;16.70;99.90
27741;DHT22;15134;48.768;9.184;2022-10-16T07:31:51;16.70;99.90
27741;DHT22;15134;48.768;9.184;2022-10-16T07:34:18;16.70;99.90
27741;DHT22;15134;48.768;9.184;2022-10-16T07:36:44;16.60;99.90
27741;DHT22;15134;48.768;9.184;2022-10-16T07:39:10;16.60;99.90
27741;DHT22;15134;48.768;9.184;2022-10-16T07:41:35;16.60;99.90
27741;DHT22;15134;48.768;9.184;2022-10-16T07:44:02;16.60;99.90
27741;DHT22;15134;48.768;9.184;2022-10-16T07:46:28;16.60;99.90
27741;DHT22;15134;48.768;9.184;2022-10-16T07:48:54;16.60;99.90
27741;DHT22;15134;48.768;9.184;2022-10-16T07:51:23;16.70;99.90
27741;DHT22;15134;48.768;9.184;2022-10-16T07:53:50;16.70;99.90
27741;DHT22;15134;48.768;9.184;2022-10-16T07:56:17;16.80;99.90
27741;DHT22;15134;48.768;9.184;2022-10-16T07:58:43;16.80;99.90
27741;DHT22;15134;48.768;9.184;2022-10-16T08:01:11;16.90;99.90
27741;DHT22;15134;48.768;9.184;2022-10-16T08:03:41;16.90;99.90
27741;DHT22;15134;48.768;9.184;2022-10-16T08:06:07;16.90;99.90
27741;DHT22;15134;48.768;9.184;2022-10-16T08:08:32;16.90;99.90
27741;DHT22;15134;48.768;9.184;2022-10-16T08:10:59;17.00;99.90
27741;DHT22;15134;48.768;9.184;2022-10-16T08:13:25;17.00;99.90
27741;DHT22;15134;48.768;9.184;2022-10-16T08:15:53;17.10;99.90
27741;DHT22;15134;48.768;9.184;2022-10-16T08:18:19;17.20;99.90
27741;DHT22;15134;48.768;9.184;2022-10-16T08:20:44;17.40;99.90
27741;DHT22;15134;48.768;9.184;2022-10-16T08:23:13;17.50;99.90
27741;DHT22;15134;48.768;9.184;2022-10-16T08:25:41;17.80;99.90
27741;DHT22;15134;48.768;9.184;2022-10-16T08:28:09;18.20;99.90
27741;DHT22;15134;48.768;9.184;2022-10-16T08:30:35;18.60;99.90
27741;DHT22;15134;48.768;9.184;2022-10-16T08:33:02;18.90;99.90
27741;DHT22;15134;48.768;9.184;2022-10-16T08:35:28;19.10;99.90
27741;DHT22;15134;48.768;9.184;2022-10-16T08:37:54;19.00;99.90
27741;DHT22;15134;48.768;9.184;2022-10-16T08:40:23;19.00;99.90
27741;DHT22;15134;48.768;9.184;2022-10-16T08:42:59;19.10;99.90
27741;DHT22;15134;48.768;9.184;2022-10-16T08:50:41;19.10;99.90
27741;DHT22;15134;48.768;9.184;2022-10-16T08:53:09;19.00;99.90
27741;DHT22;15134;48.768;9.184;2022-10-16T08:55:46;18.90;99.90
27741;DHT22;15134;48.768;9.184;2022-10-16T08:58:14;18.70;99.90
27741;DHT22;15134;48.768;9.184;2022-10-16T09:00:42;18.60;99.90
27741;DHT22;15134;48.768;9.184;2022-10-16T09:09:56;18.60;99.90
27741;DHT22;15134;48.768;9.184;2022-10-16T09:17:16;19.10;99.90
27741;DHT22;15134;48.768;9.184;2022-10-16T09:19:49;19.30;99.90
27741;DHT22;15134;48.768;9.184;2022-10-16T09:22:18;19.50;99.90
27741;DHT22;15134;48.768;9.184;2022-10-16T09:24:47;19.70;99.90
27741;DHT22;15134;48.768;9.184;2022-10-16T09:27:14;19.90;99.90
27741;DHT22;15134;48.768;9.184;2022-10-16T09:29:41;20.00;99.90
27741;DHT22;15134;48.768;9.184;2022-10-16T09:32:15;20.00;99.90
27741;DHT22;15134;48.768;9.184;2022-10-16T09:34:54;20.10;99.90
27741;DHT22;15134;48.768;9.184;2022-10-16T09:37:22;20.00;99.90
27741;DHT22;15134;48.768;9.184;2022-10-16T09:42:28;20.40;99.90
27741;DHT22;15134;48.768;9.184;2022-10-16T09:44:56;20.50;99.90
27741;DHT22;15134;48.768;9.184;2022-10-16T09:47:27;20.30;99.90
27741;DHT22;15134;48.768;9.184;2022-10-16T09:49:59;20.30;99.90
27741;DHT22;15134;48.768;9.184;2022-10-16T09:52:31;20.30;99.90
27741;DHT22;15134;48.768;9.184;2022-10-16T09:55:08;20.50;99.90
27741;DHT22;15134;48.768;9.184;2022-10-16T09:57:47;20.90;99.90
27741;DHT22;15134;48.768;9.184;2022-10-16T10:00:16;21.20;99.90
27741;DHT22;15134;48.768;9.184;2022-10-16T10:02:43;21.20;99.90
27741;DHT22;15134;48.768;9.184;2022-10-16T10:05:27;21.10;99.90
27741;DHT22;15134;48.768;9.184;2022-10-16T10:08:02;21.00;99.90
27741;DHT22;15134;48.768;9.184;2022-10-16T10:10:34;20.90;99.90
27741;DHT22;15134;48.768;9.184;2022-10-16T10:13:02;20.90;99.90
27741;DHT22;15134;48.768;9.184;2022-10-16T10:15:34;20.90;99.90
27741;DHT22;15134;48.768;9.184;2022-10-16T10:18:01;21.00;99.90
27741;DHT22;15134;48.768;9.184;2022-10-16T10:20:34;21.10;99.90
27741;DHT22;15134;48.768;9.184;2022-10-16T10:23:21;21.20;99.90
27741;DHT22;15134;48.768;9.184;2022-10-16T10:36:40;21.20;99.90
27741;DHT22;15134;48.768;9.184;2022-10-16T10:39:20;21.10;99.90
27741;DHT22;15134;48.768;9.184;2022-10-16T10:45:17;21.30;99.90
27741;DHT22;15134;48.768;9.184;2022-10-16T11:01:21;22.10;99.90
27741;DHT22;15134;48.768;9.184;2022-10-16T11:04:15;22.20;99.90
27741;DHT22;15134;48.768;9.184;2022-10-16T11:06:51;22.30;99.90
27741;DHT22;15134;48.768;9.184;2022-10-16T11:09:24;22.40;99.90
27741;DHT22;15134;48.768;9.184;2022-10-16T11:12:00;22.50;99.90
27741;DHT22;15134;48.768;9.184;2022-10-16T11:15:11;22.60;99.90
27741;DHT22;15134;48.768;9.184;2022-10-16T11:17:31;22.60;99.90
27741;DHT22;15134;48.768;9.184;2022-10-16T11:25:33;22.70;99.90
27741;DHT22;15134;48.768;9.184;2022-10-16T11:28:14;22.60;99.90
27741;DHT22;15134;48.768;9.184;2022-10-16T11:30:49;22.50;99.90
27741;DHT22;15134;48.768;9.184;2022-10-16T11:39:29;22.50;99.90
27741;DHT22;15134;48.768;9.184;2022-10-16T11:47:13;22.40;99.90
27741;DHT22;15134;48.768;9.184;2022-10-16T11:53:34;22.60;99.90
27741;DHT22;15134;48.768;9.184;2022-10-16T11:56:00;22.70;99.90
27741;DHT22;15134;48.768;9.184;2022-10-16T11:58:30;22.90;99.90
27741;DHT22;15134;48.768;9.184;2022-10-16T12:01:18;23.00;99.90
27741;DHT22;15134;48.768;9.184;2022-10-16T12:04:14;23.10;99.90
27741;DHT22;15134;48.768;9.184;2022-10-16T12:06:59;23.20;99.90
27741;DHT22;15134;48.768;9.184;2022-10-16T12:09:31;23.20;99.90
27741;DHT22;15134;48.768;9.184;2022-10-16T12:11:58;23.20;99.90
27741;DHT22;15134;48.768;9.184;2022-10-16T12:19:22;23.30;99.90
27741;DHT22;15134;48.768;9.184;2022-10-16T12:21:50;23.30;99.90
27741;DHT22;15134;48.768;9.184;2022-10-16T12:24:42;23.30;99.90
27741;DHT22;15134;48.768;9.184;2022-10-16T12:29:55;23.40;99.90
27741;DHT22;15134;48.768;9.184;2022-10-16T12:32:35;23.60;99.90
27741;DHT22;15134;48.768;9.184;2022-10-16T12:35:03;23.60;99.90
27741;DHT22;15134;48.768;9.184;2022-10-16T12:37:34;23.50;99.90
27741;DHT22;15134;48.768;9.184;2022-10-16T12:40:16;23.40;99.90
27741;DHT22;15134;48.768;9.184;2022-10-16T12:42:48;23.50;99.90
27741;DHT22;15134;48.768;9.184;2022-10-16T12:45:32;23.50;99.90
27741;DHT22;15134;48.768;9.184;2022-10-16T12:48:03;23.60;99.90
27741;DHT22;15134;48.768;9.184;2022-10-16T12:50:42;23.60;99.90
27741;DHT22;15134;48.768;9.184;2022-10-16T12:53:25;23.50;99.90
27741;DHT22;15134;48.768;9.184;2022-10-16T12:56:01;23.40;99.90
27741;DHT22;15134;48.768;9.184;2022-10-16T13:01:20;23.10;99.90
27741;DHT22;15134;48.768;9.184;2022-10-16T13:04:01;23.00;99.90
27741;DHT22;15134;48.768;9.184;2022-10-16T13:14:46;22.50;99.90
27741;DHT22;15134;48.768;9.184;2022-10-16T13:25:38;22.40;99.90
27741;DHT22;15134;48.768;9.184;2022-10-16T13:28:08;22.40;99.90
27741;DHT22;15134;48.768;9.184;2022-10-16T13:30:42;22.30;99.90
27741;DHT22;15134;48.768;9.184;2022-10-16T13:33:37;22.30;99.90
27741;DHT22;15134;48.768;9.184;2022-10-16T13:36:04;22.30;99.90
27741;DHT22;15134;48.768;9.184;2022-10-16T13:38:33;22.30;99.90
27741;DHT22;15134;48.768;9.184;2022-10-16T13:41:17;22.30;99.90
27741;DHT22;15134;48.768;9.184;2022-10-16T13:43:46;22.30;99.90
27741;DHT22;15134;48.768;9.184;2022-10-16T13:46:16;22.30;99.90
27741;DHT22;15134;48.768;9.184;2022-10-16T13:48:42;22.30;99.90
27741;DHT22;15134;48.768;9.184;2022-10-16T13:51:18;22.30;99.90
27741;DHT22;15134;48.768;9.184;2022-10-16T13:53:45;22.40;99.90
27741;DHT22;15134;48.768;9.184;2022-10-16T13:56:16;22.30;99.90
27741;DHT22;15134;48.768;9.184;2022-10-16T13:58:43;22.30;99.90
27741;DHT22;15134;48.768;9.184;2022-10-16T14:01:24;22.20;99.90
27741;DHT22;15134;48.768;9.184;2022-10-16T14:03:51;22.10;99.90
27741;DHT22;15134;48.768;9.184;2022-10-16T14:06:20;22.10;99.90
27741;DHT22;15134;48.768;9.184;2022-10-16T14:08:57;21.90;99.90
27741;DHT22;15134;48.768;9.184;2022-10-16T14:11:24;21.80;99.90
27741;DHT22;15134;48.768;9.184;2022-10-16T14:13:51;21.80;99.90
27741;DHT22;15134;48.768;9.184;2022-10-16T14:16:23;21.70;99.90
27741;DHT22;15134;48.768;9.184;2022-10-16T14:19:04;21.60;99.90
27741;DHT22;15134;48.768;9.184;2022-10-16T14:21:33;21.60;99.90
27741;DHT22;15134;48.768;9.184;2022-10-16T14:23:59;21.60;99.90
27741;DHT22;15134;48.768;9.184;2022-10-16T14:26:28;21.60;99.90
27741;DHT22;15134;48.768;9.184;2022-10-16T14:29:15;21.70;99.90
27741;DHT22;15134;48.768;9.184;2022-10-16T14:31:43;21.70;99.90
27741;DHT22;15134;48.768;9.184;2022-10-16T14:34:26;21.70;99.90
27741;DHT22;15134;48.768;9.184;2022-10-16T14:36:54;21.70;99.90
27741;DHT22;15134;48.768;9.184;2022-10-16T14:39:22;21.70;99.90
27741;DHT22;15134;48.768;9.184;2022-10-16T14:41:50;21.60;99.90
27741;DHT22;15134;48.768;9.184;2022-10-16T14:44:17;21.60;99.90
27741;DHT22;15134;48.768;9.184;2022-10-16T14:46:44;21.60;99.90
27741;DHT22;15134;48.768;9.184;2022-10-16T14:51:41;21.50;99.90
27741;DHT22;15134;48.768;9.184;2022-10-16T14:54:08;21.50;99.90
27741;DHT22;15134;48.768;9.184;2022-10-16T14:56:49;21.50;99.90
27741;DHT22;15134;48.768;9.184;2022-10-16T14:59:28;21.50;99.90
27741;DHT22;15134;48.768;9.184;2022-10-16T15:01:55;21.40;99.90
27741;DHT22;15134;48.768;9.184;2022-10-16T15:04:21;21.40;99.90
27741;DHT22;15134;48.768;9.184;2022-10-16T15:06:46;21.40;99.90
27741;DHT22;15134;48.768;9.184;2022-10-16T15:09:12;21.40;99.90
27741;DHT22;15134;48.768;9.184;2022-10-16T15:11:38;21.30;99.90
27741;DHT22;15134;48.768;9.184;2022-10-16T15:14:04;21.30;99.90
27741;DHT22;15134;48.768;9.184;2022-10-16T15:16:30;21.30;99.90
27741;DHT22;15134;48.768;9.184;2022-10-16T15:18:56;21.30;99.90
27741;DHT22;15134;48.768;9.184;2022-10-16T15:21:29;21.30;99.90
27741;DHT22;15134;48.768;9.184;2022-10-16T15:23:55;21.30;99.90
27741;DHT22;15134;48.768;9.184;2022-10-16T15:26:23;21.30;99.90
27741;DHT22;15134;48.768;9.184;2022-10-16T15:28:49;21.30;99.90
27741;DHT22;15134;48.768;9.184;2022-10-16T15:31:14;21.20;99.90
27741;DHT22;15134;48.768;9.184;2022-10-16T15:33:40;21.20;99.90
27741;DHT22;15134;48.768;9.184;2022-10-16T15:36:06;21.10;99.90
27741;DHT22;15134;48.768;9.184;2022-10-16T15:38:32;21.10;99.90
27741;DHT22;15134;48.768;9.184;2022-10-16T15:40:58;21.00;99.90
27741;DHT22;15134;48.768;9.184;2022-10-16T15:43:23;21.00;99.90
27741;DHT22;15134;48.768;9.184;2022-10-16T15:46:00;20.90;99.90
27741;DHT22;15134;48.768;9.184;2022-10-16T15:48:27;20.80;99.90
27741;DHT22;15134;48.768;9.184;2022-10-16T15:50:53;20.80;99.90
27741;DHT22;15134;48.768;9.184;2022-10-16T15:53:19;20.80;99.90
27741;DHT22;15134;48.768;9.184;2022-10-16T15:55:45;20.80;99.90
27741;DHT22;15134;48.768;9.184;2022-10-16T15:58:10;20.70;99.90
27741;DHT22;15134;48.768;9.184;2022-10-16T16:00:36;20.80;99.90
27741;DHT22;15134;48.768;9.184;2022-10-16T16:03:02;20.70;99.90
27741;DHT22;15134;48.768;9.184;2022-10-16T16:05:28;20.70;99.90
27741;DHT22;15134;48.768;9.184;2022-10-16T16:07:54;20.60;99.90
27741;DHT22;15134;48.768;9.184;2022-10-16T16:10:20;20.50;99.90
27741;DHT22;15134;48.768;9.184;2022-10-16T16:12:49;20.40;99.90
27741;DHT22;15134;48.768;9.184;2022-10-16T16:15:19;20.40;99.90
27741;DHT22;15134;48.768;9.184;2022-10-16T16:17:44;20.30;99.90
27741;DHT22;15134;48.768;9.184;2022-10-16T16:20:11;20.20;99.90
27741;DHT22;15134;48.768;9.184;2022-10-16T16:22:37;20.20;99.90
27741;DHT22;15134;48.768;9.184;2022-10-16T16:25:03;20.10;99.90
27741;DHT22;15134;48.768;9.184;2022-10-16T16:27:29;20.00;99.90
27741;DHT22;15134;48.768;9.184;2022-10-16T16:29:58;19.90;99.90
27741;DHT22;15134;48.768;9.184;2022-10-16T16:32:24;19.80;99.90
27741;DHT22;15134;48.768;9.184;2022-10-16T16:34:50;19.80;99.90
27741;DHT22;15134;48.768;9.184;2022-10-16T16:37:16;19.70;99.90
27741;DHT22;15134;48.768;9.184;2022-10-16T16:39:42;19.60;99.90
27741;DHT22;15134;48.768;9.184;2022-10-16T16:42:08;19.60;99.90
27741;DHT22;15134;48.768;9.184;2022-10-16T16:44:35;19.50;99.90
27741;DHT22;15134;48.768;9.184;2022-10-16T16:47:03;19.50;99.90
27741;DHT22;15134;48.768;9.184;2022-10-16T16:49:28;19.50;99.90
27741;DHT22;15134;48.768;9.184;2022-10-16T16:51:54;19.50;99.90
27741;DHT22;15134;48.768;9.184;2022-10-16T16:54:20;19.50;99.90
27741;DHT22;15134;48.768;9.184;2022-10-16T16:56:46;19.40;99.90
27741;DHT22;15134;48.768;9.184;2022-10-16T16:59:17;19.40;99.90
27741;DHT22;15134;48.768;9.184;2022-10-16T17:01:43;19.30;99.90
27741;DHT22;15134;48.768;9.184;2022-10-16T17:04:09;19.30;99.90
27741;DHT22;15134;48.768;9.184;2022-10-16T17:06:36;19.30;99.90
27741;DHT22;15134;48.768;9.184;2022-10-16T17:09:05;19.20;99.90
27741;DHT22;15134;48.768;9.184;2022-10-16T17:11:31;19.20;99.90
27741;DHT22;15134;48.768;9.184;2022-10-16T17:13:58;19.20;99.90
27741;DHT22;15134;48.768;9.184;2022-10-16T17:16:30;19.10;99.90
27741;DHT22;15134;48.768;9.184;2022-10-16T17:18:59;19.10;99.90
27741;DHT22;15134;48.768;9.184;2022-10-16T17:21:24;19.10;99.90
27741;DHT22;15134;48.768;9.184;2022-10-16T17:23:52;19.10;99.90
27741;DHT22;15134;48.768;9.184;2022-10-16T17:26:18;19.00;99.90
27741;DHT22;15134;48.768;9.184;2022-10-16T17:28:44;19.00;99.90
27741;DHT22;15134;48.768;9.184;2022-10-16T17:31:17;19.00;99.90